Time;durP1;ratioP1;P1;durP2;ratioP2;P2;SDS_P1;SDS_P2;PMS_P1;PMS_P2;Temp;Humidity;BMP_temperature;BMP_pressure;BME280_temperature;BME280_humidity;BME280_pressure;Samples;Min_cycle;Max_cycle;Signal;HPM_P1;HPM_P2
2023/06/03 00:01:52;;;;;;;27.25;13.75;;;;;;;;;;6212449;23;20004;-79
2023/06/03 00:04:21;;;;;;;25.40;14.45;;;;;;;;;;6212126;23;20341;-79
2023/06/03 00:06:47;;;;;;;26.63;15.40;;;;;;;;;;6187482;23;20004;-79
2023/06/03 00:09:12;;;;;;;24.92;14.82;;;;;;;;;;6187013;23;20127;-79
2023/06/03 00:11:37;;;;;;;29.20;15.80;;;;;;;;;;6213755;23;20000;-79
2023/06/03 00:14:04;;;;;;;33.10;16.65;;;;;;;;;;6212595;23;20340;-80
2023/06/03 00:16:32;;;;;;;32.60;15.93;;;;;;;;;;6211869;23;20055;-79
2023/06/03 00:18:58;;;;;;;28.42;15.27;;;;;;;;;;6187933;23;19996;-79
2023/06/03 00:21:24;;;;;;;41.30;16.45;;;;;;;;;;6186603;23;20062;-78
2023/06/03 00:23:50;;;;;;;32.72;17.45;;;;;;;;;;6187530;23;20024;-79
2023/06/03 00:26:16;;;;;;;33.10;17.73;;;;;;;;;;6186981;23;20078;-79
2023/06/03 00:28:41;;;;;;;34.72;18.58;;;;;;;;;;6187631;23;20000;-80
2023/06/03 00:31:06;;;;;;;33.80;18.10;;;;;;;;;;6213345;23;20416;-80
2023/06/03 00:33:32;;;;;;;41.85;19.10;;;;;;;;;;6213715;23;20012;-79
2023/06/03 00:35:58;;;;;;;35.55;18.30;;;;;;;;;;6211981;23;19996;-80
2023/06/03 00:38:23;;;;;;;36.78;18.77;;;;;;;;;;6211863;23;20004;-79
2023/06/03 00:40:49;;;;;;;33.58;18.63;;;;;;;;;;6212294;23;20008;-78
2023/06/03 00:43:14;;;;;;;41.53;19.60;;;;;;;;;;6187035;23;20117;-79
2023/06/03 00:45:40;;;;;;;44.97;20.05;;;;;;;;;;6211740;23;20040;-77
2023/06/03 00:48:06;;;;;;;47.60;20.52;;;;;;;;;;6186335;23;20008;-78
2023/06/03 00:50:32;;;;;;;40.22;20.30;;;;;;;;;;6186664;23;20104;-77
2023/06/03 00:52:58;;;;;;;39.47;18.88;;;;;;;;;;6211916;23;20008;-76
2023/06/03 00:55:24;;;;;;;35.78;17.73;;;;;;;;;;6211988;23;20011;-79
2023/06/03 00:57:49;;;;;;;37.85;18.40;;;;;;;;;;6212059;23;20009;-78
2023/06/03 01:00:15;;;;;;;38.15;20.08;;;;;;;;;;6186759;23;20016;-78
2023/06/03 01:02:43;;;;;;;44.88;20.80;;;;;;;;;;6212130;23;20297;-80
2023/06/03 01:05:10;;;;;;;38.42;22.42;;;;;;;;;;6187160;23;20005;-79
2023/06/03 01:08:00;;;;;;;36.30;21.35;;;;;;;;;;6187243;23;20050;-79
2023/06/03 01:10:40;;;;;;;39.40;22.83;;;;;;;;;;6213389;23;20136;-78
2023/06/03 01:13:16;;;;;;;39.38;21.85;;;;;;;;;;6213351;23;20361;-78
2023/06/03 01:15:43;;;;;;;43.17;23.23;;;;;;;;;;6213472;23;20415;-78
2023/06/03 01:18:08;;;;;;;47.10;23.42;;;;;;;;;;6211591;23;20344;-79
2023/06/03 01:20:34;;;;;;;41.40;23.08;;;;;;;;;;6162098;23;20009;-78
2023/06/03 01:23:11;;;;;;;43.00;21.73;;;;;;;;;;6186872;23;20003;-79
2023/06/03 01:25:40;;;;;;;41.83;22.13;;;;;;;;;;6211955;23;20009;-79
2023/06/03 01:28:05;;;;;;;38.75;21.45;;;;;;;;;;6188255;23;20070;-79
2023/06/03 01:30:31;;;;;;;38.28;20.95;;;;;;;;;;6188859;23;20083;-78
2023/06/03 01:32:56;;;;;;;37.63;20.17;;;;;;;;;;6214112;23;20008;-79
2023/06/03 01:35:22;;;;;;;33.35;18.85;;;;;;;;;;6214170;23;20011;-79
2023/06/03 01:37:47;;;;;;;34.40;18.98;;;;;;;;;;6213782;23;20007;-79
2023/06/03 01:40:13;;;;;;;32.17;18.80;;;;;;;;;;6213565;23;20004;-80
2023/06/03 01:42:38;;;;;;;36.08;18.42;;;;;;;;;;6164283;23;20013;-79
2023/06/03 01:45:04;;;;;;;37.22;19.38;;;;;;;;;;6213605;23;20011;-79
2023/06/03 01:47:30;;;;;;;35.45;19.50;;;;;;;;;;6213677;23;20421;-79
2023/06/03 01:49:55;;;;;;;39.67;20.95;;;;;;;;;;6211293;23;20471;-80
2023/06/03 01:52:21;;;;;;;37.30;20.60;;;;;;;;;;6214884;23;20004;-79
2023/06/03 01:54:46;;;;;;;35.25;19.27;;;;;;;;;;6215082;23;20004;-79
2023/06/03 01:57:12;;;;;;;33.13;17.73;;;;;;;;;;6214829;23;20063;-79
2023/06/03 01:59:38;;;;;;;26.92;14.80;;;;;;;;;;6213808;23;20011;-78
2023/06/03 02:02:03;;;;;;;28.25;15.65;;;;;;;;;;6213301;23;20381;-78
2023/06/03 02:04:29;;;;;;;31.63;18.08;;;;;;;;;;6213283;23;20329;-79
2023/06/03 02:07:00;;;;;;;34.17;19.20;;;;;;;;;;6163405;23;20008;-79
2023/06/03 02:09:27;;;;;;;33.45;19.05;;;;;;;;;;6189697;23;20082;-79
2023/06/03 02:11:53;;;;;;;36.22;19.95;;;;;;;;;;6213595;23;20437;-78
2023/06/03 02:14:19;;;;;;;38.78;21.48;;;;;;;;;;6188393;23;20448;-78
2023/06/03 02:16:45;;;;;;;44.05;23.35;;;;;;;;;;6213079;23;20001;-78
2023/06/03 02:19:12;;;;;;;43.10;23.63;;;;;;;;;;6213190;23;20062;-78
2023/06/03 02:21:39;;;;;;;41.22;22.98;;;;;;;;;;6188919;23;20070;-78
2023/06/03 02:24:05;;;;;;;46.45;26.02;;;;;;;;;;6213477;23;20008;-79
2023/06/03 02:26:31;;;;;;;46.85;24.98;;;;;;;;;;6188917;23;20004;-78
2023/06/03 02:28:56;;;;;;;43.75;25.10;;;;;;;;;;6213208;23;20054;-78
2023/06/03 02:31:22;;;;;;;50.85;26.10;;;;;;;;;;6188012;23;20031;-79
2023/06/03 02:33:48;;;;;;;50.00;26.02;;;;;;;;;;6188400;23;20487;-79
2023/06/03 02:36:14;;;;;;;45.42;24.95;;;;;;;;;;6188553;23;20029;-79
2023/06/03 02:38:40;;;;;;;41.65;23.10;;;;;;;;;;6214747;23;19997;-78
2023/06/03 02:41:05;;;;;;;47.55;23.48;;;;;;;;;;6214372;23;20059;-78
2023/06/03 02:43:31;;;;;;;44.30;22.92;;;;;;;;;;6213249;23;20012;-79
2023/06/03 02:45:56;;;;;;;43.92;24.67;;;;;;;;;;6212896;23;19996;-79
2023/06/03 02:48:22;;;;;;;44.03;24.25;;;;;;;;;;6188267;23;20000;-79
2023/06/03 02:50:47;;;;;;;51.05;23.38;;;;;;;;;;6212547;23;20004;-79
2023/06/03 02:53:13;;;;;;;47.72;24.35;;;;;;;;;;6213784;23;20055;-78
2023/06/03 02:55:38;;;;;;;48.13;24.08;;;;;;;;;;6213054;23;20004;-79
2023/06/03 02:58:03;;;;;;;44.80;23.13;;;;;;;;;;6210866;23;20111;-78
2023/06/03 03:00:29;;;;;;;41.38;22.45;;;;;;;;;;6210935;23;20008;-78
2023/06/03 03:02:55;;;;;;;42.75;23.92;;;;;;;;;;6211146;23;20008;-79
2023/06/03 03:05:23;;;;;;;42.90;23.75;;;;;;;;;;6161198;23;20012;-79
2023/06/03 03:07:49;;;;;;;41.20;22.80;;;;;;;;;;6211616;23;20012;-79
2023/06/03 03:10:15;;;;;;;40.78;22.70;;;;;;;;;;6212010;23;20340;-79
2023/06/03 03:12:40;;;;;;;42.47;22.60;;;;;;;;;;6163314;23;20005;-79
2023/06/03 03:15:06;;;;;;;45.00;24.27;;;;;;;;;;6210789;23;20384;-78
2023/06/03 03:17:32;;;;;;;48.17;26.30;;;;;;;;;;6211052;23;20067;-78
2023/06/03 03:19:58;;;;;;;46.70;25.42;;;;;;;;;;6210732;23;20005;-78
2023/06/03 03:22:23;;;;;;;43.33;23.98;;;;;;;;;;6212637;23;20005;-78
2023/06/03 03:24:50;;;;;;;43.97;24.33;;;;;;;;;;6185920;23;20313;-78
2023/06/03 03:27:16;;;;;;;47.50;25.17;;;;;;;;;;6210777;23;20084;-79
2023/06/03 03:29:44;;;;;;;46.67;24.63;;;;;;;;;;6211934;23;20004;-78
2023/06/03 03:32:11;;;;;;;44.30;24.63;;;;;;;;;;6187788;23;20084;-79
2023/06/03 03:34:55;;;;;;;42.78;23.13;;;;;;;;;;6214015;23;20071;-79
2023/06/03 03:37:20;;;;;;;42.53;24.70;;;;;;;;;;6214044;23;20423;-79
2023/06/03 03:39:46;;;;;;;48.88;26.50;;;;;;;;;;6212724;23;20005;-79
2023/06/03 03:42:11;;;;;;;52.65;25.65;;;;;;;;;;6187985;23;20087;-79
2023/06/03 03:44:37;;;;;;;47.83;25.20;;;;;;;;;;6213661;23;20428;-80
2023/06/03 03:47:02;;;;;;;52.33;25.20;;;;;;;;;;6187604;23;20055;-79
2023/06/03 03:49:30;;;;;;;44.33;24.85;;;;;;;;;;6212732;23;20076;-79
2023/06/03 03:51:56;;;;;;;43.50;23.42;;;;;;;;;;6187466;23;20001;-79
2023/06/03 03:54:25;;;;;;;43.63;23.67;;;;;;;;;;6210290;23;20004;-79
2023/06/03 03:56:54;;;;;;;54.10;27.17;;;;;;;;;;6187463;23;20016;-79
2023/06/03 03:59:20;;;;;;;62.95;30.30;;;;;;;;;;6162565;23;20348;-78
2023/06/03 04:01:45;;;;;;;74.35;36.95;;;;;;;;;;6212619;23;20000;-78
2023/06/03 04:04:11;;;;;;;76.45;37.65;;;;;;;;;;6213876;23;20058;-78
2023/06/03 04:06:38;;;;;;;79.07;35.50;;;;;;;;;;6187372;23;20031;-79
2023/06/03 04:09:07;;;;;;;62.67;31.40;;;;;;;;;;6212411;23;20012;-79
2023/06/03 04:11:41;;;;;;;57.47;29.83;;;;;;;;;;6187592;23;20083;-80
2023/06/03 04:14:14;;;;;;;66.65;29.85;;;;;;;;;;6212258;23;20095;-78
2023/06/03 04:16:54;;;;;;;55.65;26.02;;;;;;;;;;6188336;23;20005;-78
2023/06/03 04:19:30;;;;;;;50.60;25.15;;;;;;;;;;6214039;23;20020;-77
2023/06/03 04:21:56;;;;;;;43.50;24.85;;;;;;;;;;6165538;23;20309;-79
2023/06/03 04:24:21;;;;;;;44.80;23.77;;;;;;;;;;6212145;23;20094;-78
2023/06/03 04:26:47;;;;;;;44.50;23.92;;;;;;;;;;6213265;23;20001;-78
2023/06/03 04:29:12;;;;;;;46.55;24.55;;;;;;;;;;6213698;23;20004;-78
2023/06/03 04:31:38;;;;;;;41.22;23.10;;;;;;;;;;6213607;23;20032;-78
2023/06/03 04:34:03;;;;;;;43.15;21.95;;;;;;;;;;6186985;23;20036;-78
2023/06/03 04:36:29;;;;;;;49.53;22.83;;;;;;;;;;6187019;23;20064;-77
2023/06/03 04:38:54;;;;;;;38.30;21.92;;;;;;;;;;6212067;23;20075;-78
2023/06/03 04:41:19;;;;;;;43.30;21.63;;;;;;;;;;6212121;23;20428;-78
2023/06/03 04:43:45;;;;;;;48.17;23.77;;;;;;;;;;6187300;23;20427;-78
2023/06/03 04:46:11;;;;;;;40.03;23.25;;;;;;;;;;6162656;23;20402;-79
2023/06/03 04:48:41;;;;;;;46.45;23.83;;;;;;;;;;6187304;23;20000;-78
2023/06/03 04:51:07;;;;;;;46.97;23.73;;;;;;;;;;6212281;23;20004;-78
2023/06/03 04:53:33;;;;;;;49.17;24.35;;;;;;;;;;6187487;23;20008;-78
2023/06/03 04:56:01;;;;;;;47.22;24.52;;;;;;;;;;6187209;23;20014;-78
2023/06/03 04:58:26;;;;;;;53.70;25.08;;;;;;;;;;6211919;23;20451;-78
2023/06/03 05:00:52;;;;;;;50.80;26.75;;;;;;;;;;6191897;23;20004;-78
2023/06/03 05:03:17;;;;;;;59.47;28.55;;;;;;;;;;6214355;23;20001;-78
2023/06/03 05:05:43;;;;;;;57.78;27.38;;;;;;;;;;6221522;23;20004;-79
2023/06/03 05:08:12;;;;;;;62.67;29.13;;;;;;;;;;6205280;23;20001;-78
2023/06/03 05:10:37;;;;;;;54.70;27.73;;;;;;;;;;6231909;23;20010;-79
2023/06/03 05:13:03;;;;;;;59.22;27.00;;;;;;;;;;6209358;23;20001;-79
2023/06/03 05:15:29;;;;;;;46.03;24.40;;;;;;;;;;6173802;23;20063;-79
2023/06/03 05:17:54;;;;;;;62.03;28.33;;;;;;;;;;6175003;23;20001;-79
2023/06/03 05:20:20;;;;;;;61.10;31.08;;;;;;;;;;6215712;23;20052;-79
2023/06/03 05:22:45;;;;;;;69.60;35.22;;;;;;;;;;6214023;23;20000;-79
2023/06/03 05:25:12;;;;;;;64.95;33.58;;;;;;;;;;6215521;23;20075;-79
2023/06/03 05:27:37;;;;;;;64.10;31.67;;;;;;;;;;6164883;23;20005;-79
2023/06/03 05:30:03;;;;;;;61.00;29.52;;;;;;;;;;6213960;23;20036;-79
2023/06/03 05:32:28;;;;;;;55.00;28.00;;;;;;;;;;6189128;23;20012;-79
2023/06/03 05:34:54;;;;;;;47.05;24.67;;;;;;;;;;6215377;23;20447;-79
2023/06/03 05:37:19;;;;;;;42.17;22.17;;;;;;;;;;6215125;23;20004;-79
2023/06/03 05:39:45;;;;;;;36.05;20.35;;;;;;;;;;6213824;23;20389;-79
2023/06/03 05:42:10;;;;;;;34.72;14.73;;;;;;;;;;6215263;23;20004;-79
2023/06/03 05:44:35;;;;;;;31.00;16.40;;;;;;;;;;6188103;23;20023;-79
2023/06/03 05:47:01;;;;;;;34.53;15.80;;;;;;;;;;6188573;23;20447;-79
2023/06/03 05:49:26;;;;;;;33.97;16.38;;;;;;;;;;6213841;23;20050;-80
2023/06/03 05:51:52;;;;;;;26.48;15.30;;;;;;;;;;6164103;23;20067;-79
2023/06/03 05:54:17;;;;;;;24.55;13.70;;;;;;;;;;6214624;23;20008;-79
2023/06/03 05:56:43;;;;;;;27.48;14.88;;;;;;;;;;6211639;23;20056;-79
2023/06/03 05:59:08;;;;;;;33.28;13.63;;;;;;;;;;6214856;23;20001;-79
2023/06/03 06:01:34;;;;;;;22.05;12.57;;;;;;;;;;6214986;23;20005;-78
2023/06/03 06:03:59;;;;;;;26.58;12.52;;;;;;;;;;6163940;23;20008;-79
2023/06/03 06:06:25;;;;;;;25.38;12.23;;;;;;;;;;6163601;23;20404;-79
2023/06/03 06:08:50;;;;;;;20.25;11.70;;;;;;;;;;6213127;23;20008;-79
2023/06/03 06:11:16;;;;;;;25.15;12.40;;;;;;;;;;6188343;23;20347;-78
2023/06/03 06:13:41;;;;;;;24.50;12.60;;;;;;;;;;6188326;23;20016;-78
2023/06/03 06:16:07;;;;;;;27.73;12.65;;;;;;;;;;6214617;23;20360;-79
2023/06/03 06:18:32;;;;;;;24.90;12.63;;;;;;;;;;6188365;23;20332;-79
2023/06/03 06:20:58;;;;;;;30.10;13.63;;;;;;;;;;6214796;23;20056;-78
2023/06/03 06:23:23;;;;;;;23.80;12.10;;;;;;;;;;6187851;23;20004;-78
2023/06/03 06:25:50;;;;;;;23.30;12.18;;;;;;;;;;6214820;23;20024;-79
2023/06/03 06:28:19;;;;;;;25.08;11.98;;;;;;;;;;6188452;23;20051;-78
2023/06/03 06:30:45;;;;;;;19.65;11.30;;;;;;;;;;6188297;23;20352;-78
2023/06/03 06:33:13;;;;;;;22.35;11.63;;;;;;;;;;6188289;23;20007;-79
2023/06/03 06:35:38;;;;;;;31.95;13.60;;;;;;;;;;6213550;23;20417;-78
2023/06/03 06:38:04;;;;;;;22.67;12.93;;;;;;;;;;6213649;23;20009;-79
2023/06/03 06:40:35;;;;;;;25.00;11.70;;;;;;;;;;6188576;23;20004;-80
2023/06/03 06:43:01;;;;;;;21.30;11.65;;;;;;;;;;6213409;23;20008;-80
2023/06/03 06:45:32;;;;;;;23.83;11.88;;;;;;;;;;6213609;23;20755;-79
2023/06/03 06:48:04;;;;;;;21.35;11.35;;;;;;;;;;6213162;23;20005;-80
2023/06/03 06:50:55;;;;;;;21.38;12.18;;;;;;;;;;6213058;23;20005;-79
2023/06/03 06:53:21;;;;;;;21.67;11.20;;;;;;;;;;6212716;23;20367;-80
2023/06/03 06:55:54;;;;;;;22.45;11.30;;;;;;;;;;6188608;23;20031;-80
2023/06/03 06:58:20;;;;;;;20.77;10.50;;;;;;;;;;6187506;23;20000;-80
2023/06/03 07:00:46;;;;;;;21.20;11.80;;;;;;;;;;6214129;23;20063;-80
2023/06/03 07:03:13;;;;;;;25.58;11.75;;;;;;;;;;6213305;23;19997;-80
2023/06/03 07:05:39;;;;;;;20.08;11.07;;;;;;;;;;6163546;23;20000;-81
2023/06/03 07:08:05;;;;;;;29.92;12.27;;;;;;;;;;6187818;23;20051;-81
2023/06/03 07:10:30;;;;;;;19.20;10.95;;;;;;;;;;6163448;23;20012;-79
2023/06/03 07:12:56;;;;;;;20.02;11.23;;;;;;;;;;6214251;23;20032;-79
2023/06/03 07:15:24;;;;;;;17.35;11.13;;;;;;;;;;6212763;23;20011;-79
2023/06/03 07:17:53;;;;;;;18.45;11.10;;;;;;;;;;6187839;23;20424;-80
2023/06/03 07:20:25;;;;;;;16.73;11.40;;;;;;;;;;6163284;23;20016;-80
2023/06/03 07:22:50;;;;;;;17.98;10.82;;;;;;;;;;6212824;23;20028;-81
2023/06/03 07:25:25;;;;;;;22.63;11.93;;;;;;;;;;6187600;23;20041;-82
2023/06/03 07:27:50;;;;;;;23.15;12.45;;;;;;;;;;6214060;23;20024;-81
2023/06/03 07:30:16;;;;;;;20.70;11.52;;;;;;;;;;6214332;23;20420;-82
2023/06/03 07:32:41;;;;;;;22.17;11.27;;;;;;;;;;6187729;23;20000;-81
2023/06/03 07:35:07;;;;;;;17.58;11.30;;;;;;;;;;6187094;23;20005;-83
2023/06/03 07:37:33;;;;;;;20.40;11.75;;;;;;;;;;6187734;23;20005;-84
2023/06/03 07:39:58;;;;;;;17.80;11.55;;;;;;;;;;6214268;23;20009;-84
2023/06/03 07:42:27;;;;;;;26.35;11.80;;;;;;;;;;6162233;23;20004;-81
2023/06/03 07:44:55;;;;;;;18.50;11.60;;;;;;;;;;6188805;23;20385;-82
2023/06/03 07:47:20;;;;;;;21.38;11.82;;;;;;;;;;6212616;23;20087;-80
2023/06/03 07:49:47;;;;;;;18.10;10.98;;;;;;;;;;6212485;23;20000;-80
2023/06/03 07:52:16;;;;;;;18.40;10.30;;;;;;;;;;6187682;23;20007;-82
2023/06/03 07:54:41;;;;;;;20.15;10.85;;;;;;;;;;6187702;23;20055;-82
2023/06/03 07:57:07;;;;;;;21.40;10.23;;;;;;;;;;6187307;23;20091;-83
2023/06/03 07:59:32;;;;;;;16.02;9.98;;;;;;;;;;6188167;23;20028;-84
2023/06/03 08:01:58;;;;;;;15.05;10.05;;;;;;;;;;6210032;23;20289;-83
2023/06/03 08:04:34;;;;;;;22.45;9.98;;;;;;;;;;6213187;23;20436;-83
2023/06/03 08:07:00;;;;;;;18.10;10.15;;;;;;;;;;6189125;23;20028;-82
2023/06/03 08:09:29;;;;;;;16.70;9.90;;;;;;;;;;6187529;23;20344;-82
2023/06/03 08:11:55;;;;;;;17.67;10.25;;;;;;;;;;6212707;23;20428;-82
2023/06/03 08:14:23;;;;;;;18.42;10.98;;;;;;;;;;6213024;23;20339;-82
2023/06/03 08:16:49;;;;;;;21.90;11.48;;;;;;;;;;6188167;23;20074;-82
2023/06/03 08:19:16;;;;;;;22.42;11.32;;;;;;;;;;6213609;23;20004;-83
2023/06/03 08:21:41;;;;;;;24.65;9.95;;;;;;;;;;6212120;23;20004;-83
2023/06/03 08:24:08;;;;;;;20.88;10.80;;;;;;;;;;6212243;23;20061;-83
2023/06/03 08:26:36;;;;;;;18.42;10.43;;;;;;;;;;6211927;23;20008;-82
2023/06/03 08:29:02;;;;;;;18.85;10.68;;;;;;;;;;6212275;23;20000;-82
2023/06/03 08:31:29;;;;;;;18.20;10.02;;;;;;;;;;6187408;23;20059;-82
2023/06/03 08:33:54;;;;;;;20.15;10.10;;;;;;;;;;6213233;23;20285;-83
2023/06/03 08:36:20;;;;;;;16.20;9.32;;;;;;;;;;6211750;23;20004;-82
2023/06/03 08:38:45;;;;;;;14.40;9.10;;;;;;;;;;6163011;23;20027;-83
2023/06/03 08:41:11;;;;;;;19.73;9.20;;;;;;;;;;6211496;23;20332;-83
2023/06/03 08:43:47;;;;;;;16.13;9.70;;;;;;;;;;6186510;23;20067;-82
2023/06/03 08:46:41;;;;;;;16.02;9.25;;;;;;;;;;6211950;23;20421;-83
2023/06/03 08:49:08;;;;;;;15.52;9.35;;;;;;;;;;6207614;23;20008;-81
2023/06/03 08:51:37;;;;;;;12.13;8.55;;;;;;;;;;6211654;23;20493;-81
2023/06/03 08:54:08;;;;;;;14.50;9.10;;;;;;;;;;6212175;23;20012;-82
2023/06/03 08:56:34;;;;;;;15.00;7.93;;;;;;;;;;6187649;23;20254;-82
2023/06/03 08:59:02;;;;;;;12.63;8.40;;;;;;;;;;6187099;23;20034;-82
2023/06/03 09:01:32;;;;;;;13.60;8.93;;;;;;;;;;6185734;23;20005;-81
2023/06/03 09:03:58;;;;;;;18.73;8.50;;;;;;;;;;6207438;23;20079;-82
2023/06/03 09:06:25;;;;;;;14.52;8.65;;;;;;;;;;6209798;23;20012;-82
2023/06/03 09:08:53;;;;;;;20.35;9.60;;;;;;;;;;6210341;23;20408;-83
2023/06/03 09:11:18;;;;;;;15.00;8.45;;;;;;;;;;6186002;23;20007;-82
2023/06/03 09:13:44;;;;;;;16.27;8.45;;;;;;;;;;6209653;23;20005;-82
2023/06/03 09:16:10;;;;;;;13.68;8.77;;;;;;;;;;6185545;23;20016;-81
2023/06/03 09:18:36;;;;;;;12.32;8.23;;;;;;;;;;6211958;23;19997;-81
2023/06/03 09:21:02;;;;;;;12.23;8.05;;;;;;;;;;6186327;23;20432;-82
2023/06/03 09:23:27;;;;;;;13.75;8.43;;;;;;;;;;6211910;23;20005;-82
2023/06/03 09:25:53;;;;;;;13.20;7.75;;;;;;;;;;6211800;23;20499;-82
2023/06/03 09:28:19;;;;;;;13.90;8.38;;;;;;;;;;6186866;23;20012;-82
2023/06/03 09:30:44;;;;;;;13.40;8.60;;;;;;;;;;6186822;23;20012;-82
2023/06/03 09:33:10;;;;;;;14.40;8.38;;;;;;;;;;6212135;23;20020;-82
2023/06/03 09:35:35;;;;;;;13.32;8.32;;;;;;;;;;6211741;23;20015;-81
2023/06/03 09:38:04;;;;;;;10.40;7.15;;;;;;;;;;6212198;23;20444;-82
2023/06/03 09:40:30;;;;;;;11.60;7.73;;;;;;;;;;6187327;23;20416;-83
2023/06/03 09:42:55;;;;;;;14.60;8.50;;;;;;;;;;6211605;23;20079;-83
2023/06/03 09:45:29;;;;;;;13.45;8.30;;;;;;;;;;6211963;23;20012;-82
2023/06/03 09:47:54;;;;;;;10.45;7.47;;;;;;;;;;6211481;23;19997;-83
2023/06/03 09:50:21;;;;;;;9.52;7.28;;;;;;;;;;6214876;23;20011;-81
2023/06/03 09:52:46;;;;;;;14.75;7.70;;;;;;;;;;6213568;23;20424;-82
2023/06/03 09:55:12;;;;;;;12.75;6.93;;;;;;;;;;6188704;23;20111;-81
2023/06/03 09:57:38;;;;;;;13.55;8.13;;;;;;;;;;6215064;23;20008;-83
2023/06/03 10:00:09;;;;;;;12.10;7.63;;;;;;;;;;6215062;23;20098;-82
2023/06/03 10:02:42;;;;;;;15.13;8.45;;;;;;;;;;6214933;23;20004;-83
2023/06/03 10:05:27;;;;;;;13.32;8.63;;;;;;;;;;6187648;23;20036;-82
2023/06/03 10:07:52;;;;;;;13.80;7.90;;;;;;;;;;6213690;23;20087;-82
2023/06/03 10:10:17;;;;;;;13.02;7.75;;;;;;;;;;6188414;23;20347;-82
2023/06/03 10:12:45;;;;;;;10.52;7.30;;;;;;;;;;6214846;23;20036;-83
2023/06/03 10:15:11;;;;;;;12.45;7.40;;;;;;;;;;6213735;23;20071;-83
2023/06/03 10:17:49;;;;;;;11.68;7.90;;;;;;;;;;6187930;23;20009;-83
2023/06/03 10:20:36;;;;;;;14.60;7.83;;;;;;;;;;6187542;23;20009;-82
2023/06/03 10:23:03;;;;;;;13.82;8.25;;;;;;;;;;6187657;23;20066;-82
2023/06/03 10:25:55;;;;;;;13.80;8.43;;;;;;;;;;6187083;23;20004;-82
2023/06/03 10:28:20;;;;;;;11.23;8.80;;;;;;;;;;6180870;23;20039;-83
2023/06/03 10:30:46;;;;;;;13.35;8.98;;;;;;;;;;6212636;23;20008;-82
2023/06/03 10:33:11;;;;;;;12.77;9.13;;;;;;;;;;6212933;23;20001;-82
2023/06/03 10:35:37;;;;;;;14.57;9.70;;;;;;;;;;6213400;23;20012;-83
2023/06/03 10:38:04;;;;;;;16.30;9.68;;;;;;;;;;6186757;23;20009;-82
2023/06/03 10:40:30;;;;;;;13.57;8.82;;;;;;;;;;6211370;23;20066;-82
2023/06/03 10:42:56;;;;;;;11.82;8.15;;;;;;;;;;6211227;23;20087;-83
2023/06/03 10:45:24;;;;;;;13.32;8.40;;;;;;;;;;6185826;23;20027;-83
2023/06/03 10:47:52;;;;;;;14.20;8.38;;;;;;;;;;6186910;23;20134;-83
2023/06/03 10:50:33;;;;;;;13.80;7.90;;;;;;;;;;6186270;23;20016;-82
2023/06/03 10:53:12;;;;;;;17.15;8.40;;;;;;;;;;6213912;23;20368;-81
2023/06/03 10:55:42;;;;;;;14.75;8.27;;;;;;;;;;6213138;23;20000;-82
2023/06/03 10:58:21;;;;;;;11.63;8.52;;;;;;;;;;6213036;23;20012;-81
2023/06/03 11:00:57;;;;;;;13.45;8.10;;;;;;;;;;6188769;23;20024;-83
2023/06/03 11:03:27;;;;;;;12.75;7.75;;;;;;;;;;6212828;23;20015;-82
2023/06/03 11:05:53;;;;;;;14.45;7.70;;;;;;;;;;6187669;23;20009;-83
2023/06/03 11:08:57;;;;;;;11.27;7.88;;;;;;;;;;6161982;23;20058;-79
2023/06/03 11:11:41;;;;;;;11.52;7.18;;;;;;;;;;6212514;23;20005;-82
2023/06/03 11:14:41;;;;;;;12.13;7.55;;;;;;;;;;6213737;23;20008;-82
2023/06/03 11:17:09;;;;;;;12.07;7.03;;;;;;;;;;6213962;23;20000;-82
2023/06/03 11:19:40;;;;;;;10.30;7.65;;;;;;;;;;6187872;23;20000;-81
2023/06/03 11:22:09;;;;;;;10.63;7.95;;;;;;;;;;6212547;23;20071;-82
2023/06/03 11:24:37;;;;;;;11.88;7.75;;;;;;;;;;6188123;23;20011;-82
2023/06/03 11:27:09;;;;;;;15.55;8.43;;;;;;;;;;6213970;23;20001;-82
2023/06/03 11:29:47;;;;;;;11.57;8.25;;;;;;;;;;6212001;23;20007;-83
2023/06/03 11:32:19;;;;;;;13.32;8.52;;;;;;;;;;6213987;23;20012;-82
2023/06/03 11:34:45;;;;;;;13.45;8.43;;;;;;;;;;6212427;23;20100;-80
2023/06/03 11:37:20;;;;;;;14.80;8.50;;;;;;;;;;6213797;23;20007;-83
2023/06/03 11:40:04;;;;;;;12.45;8.52;;;;;;;;;;6213706;23;20092;-83
2023/06/03 11:42:30;;;;;;;14.73;9.13;;;;;;;;;;6211992;23;20004;-81
2023/06/03 11:44:56;;;;;;;12.85;8.80;;;;;;;;;;6213809;23;20009;-82
2023/06/03 11:47:21;;;;;;;12.05;8.60;;;;;;;;;;6187064;23;20075;-81
2023/06/03 11:49:47;;;;;;;16.08;8.98;;;;;;;;;;6212293;23;20298;-80
2023/06/03 11:52:12;;;;;;;12.45;8.70;;;;;;;;;;6212056;23;20075;-81
2023/06/03 11:54:39;;;;;;;10.98;8.32;;;;;;;;;;6213692;23;20036;-81
2023/06/03 11:57:05;;;;;;;12.95;8.23;;;;;;;;;;6211736;23;20008;-81
2023/06/03 11:59:32;;;;;;;10.57;8.32;;;;;;;;;;6213383;23;20432;-81
2023/06/03 12:02:03;;;;;;;11.13;7.43;;;;;;;;;;6212181;23;20036;-80
2023/06/03 12:04:29;;;;;;;13.30;7.70;;;;;;;;;;6187667;23;20004;-80
2023/06/03 12:06:55;;;;;;;10.68;6.82;;;;;;;;;;6212012;23;20082;-82
2023/06/03 12:09:22;;;;;;;14.93;7.43;;;;;;;;;;6187168;23;20055;-82
2023/06/03 12:11:47;;;;;;;10.38;7.32;;;;;;;;;;6186634;23;20005;-82
2023/06/03 12:14:44;;;;;;;10.60;6.50;;;;;;;;;;6187641;23;20029;-82
2023/06/03 12:17:18;;;;;;;10.95;7.10;;;;;;;;;;6158475;23;20005;-81
2023/06/03 12:19:49;;;;;;;9.95;6.80;;;;;;;;;;6163898;23;20146;-82
2023/06/03 12:22:22;;;;;;;10.68;7.55;;;;;;;;;;6211987;23;20495;-83
2023/06/03 12:24:47;;;;;;;10.93;6.55;;;;;;;;;;6187227;23;20428;-82
2023/06/03 12:27:24;;;;;;;11.18;7.28;;;;;;;;;;6186918;23;20039;-82
2023/06/03 12:29:56;;;;;;;11.07;7.20;;;;;;;;;;6213246;23;20466;-82
2023/06/03 12:32:28;;;;;;;10.27;6.80;;;;;;;;;;6162607;23;20435;-84
2023/06/03 12:34:54;;;;;;;12.98;6.88;;;;;;;;;;6211870;23;20011;-83
2023/06/03 12:37:29;;;;;;;12.35;7.10;;;;;;;;;;6162278;23;20004;-83
2023/06/03 12:39:55;;;;;;;10.05;6.97;;;;;;;;;;6211319;23;20348;-83
2023/06/03 12:42:22;;;;;;;12.05;6.82;;;;;;;;;;6211658;23;20004;-84
2023/06/03 12:44:49;;;;;;;11.70;6.80;;;;;;;;;;6211919;23;20011;-83
2023/06/03 12:47:16;;;;;;;9.15;5.45;;;;;;;;;;6187096;23;20012;-82
2023/06/03 12:49:43;;;;;;;8.50;4.88;;;;;;;;;;6212254;23;20020;-83
2023/06/03 12:52:19;;;;;;;6.55;4.18;;;;;;;;;;6212465;23;20004;-83
2023/06/03 12:54:48;;;;;;;5.78;4.50;;;;;;;;;;6211246;23;20005;-83
2023/06/03 12:57:14;;;;;;;6.25;4.30;;;;;;;;;;6186658;23;20051;-81
2023/06/03 13:00:06;;;;;;;5.43;4.40;;;;;;;;;;6211802;23;20001;-83
2023/06/03 13:02:32;;;;;;;5.90;4.13;;;;;;;;;;6213509;23;20005;-83
2023/06/03 13:04:58;;;;;;;6.30;4.10;;;;;;;;;;6162400;23;20074;-84
2023/06/03 13:07:23;;;;;;;6.22;3.72;;;;;;;;;;6186745;23;20443;-83
2023/06/03 13:09:49;;;;;;;4.75;3.95;;;;;;;;;;6211360;23;20023;-83
2023/06/03 13:12:14;;;;;;;7.38;4.45;;;;;;;;;;6211665;23;20063;-81
2023/06/03 13:14:40;;;;;;;5.63;4.20;;;;;;;;;;6211734;23;20009;-83
2023/06/03 13:17:07;;;;;;;5.63;3.90;;;;;;;;;;6186696;23;19996;-82
2023/06/03 13:19:35;;;;;;;5.15;3.80;;;;;;;;;;6186939;23;20078;-83
2023/06/03 13:22:00;;;;;;;6.20;4.57;;;;;;;;;;6186651;23;20085;-83
2023/06/03 13:24:26;;;;;;;7.82;4.88;;;;;;;;;;6187400;23;20360;-83
2023/06/03 13:26:51;;;;;;;8.45;4.93;;;;;;;;;;6213801;23;20013;-82
2023/06/03 13:29:17;;;;;;;8.38;5.22;;;;;;;;;;6214919;23;20001;-83
2023/06/03 13:31:42;;;;;;;6.93;5.45;;;;;;;;;;6188657;23;20001;-83
2023/06/03 13:34:08;;;;;;;8.35;5.47;;;;;;;;;;6188658;23;20075;-83
2023/06/03 13:36:33;;;;;;;9.88;5.97;;;;;;;;;;6213278;23;20040;-83
2023/06/03 13:38:58;;;;;;;10.52;5.78;;;;;;;;;;6213286;23;20000;-83
2023/06/03 13:41:25;;;;;;;9.15;5.80;;;;;;;;;;6163689;23;20070;-82
2023/06/03 13:43:50;;;;;;;10.52;6.40;;;;;;;;;;6163927;23;20054;-82
2023/06/03 13:46:16;;;;;;;12.57;6.65;;;;;;;;;;6188714;23;20056;-83
2023/06/03 13:48:41;;;;;;;11.35;6.88;;;;;;;;;;6214844;23;20008;-82
2023/06/03 13:51:06;;;;;;;10.82;6.38;;;;;;;;;;6188585;23;20015;-82
2023/06/03 13:53:32;;;;;;;9.43;6.68;;;;;;;;;;6188397;23;20054;-82
2023/06/03 13:55:57;;;;;;;11.95;6.75;;;;;;;;;;6214685;23;20439;-83
2023/06/03 13:58:23;;;;;;;13.23;7.45;;;;;;;;;;6213436;23;20012;-83
2023/06/03 14:00:48;;;;;;;13.73;8.70;;;;;;;;;;6188403;23;20087;-82
2023/06/03 14:03:13;;;;;;;18.63;8.13;;;;;;;;;;6163710;23;20028;-83
2023/06/03 14:05:39;;;;;;;12.18;7.50;;;;;;;;;;6213236;23;20001;-83
2023/06/03 14:08:04;;;;;;;15.23;7.82;;;;;;;;;;6212808;23;20011;-83
2023/06/03 14:10:30;;;;;;;14.95;8.18;;;;;;;;;;6188012;23;20150;-83
2023/06/03 14:12:55;;;;;;;12.90;7.93;;;;;;;;;;6213181;23;20011;-81
2023/06/03 14:15:21;;;;;;;12.90;8.70;;;;;;;;;;6187971;23;20001;-82
2023/06/03 14:17:46;;;;;;;15.45;8.98;;;;;;;;;;6212663;23;20009;-81
2023/06/03 14:20:12;;;;;;;9.90;6.97;;;;;;;;;;6188043;23;20041;-82
2023/06/03 14:22:37;;;;;;;13.20;7.63;;;;;;;;;;6163257;23;20011;-82
2023/06/03 14:25:03;;;;;;;11.63;8.35;;;;;;;;;;6188103;23;20031;-80
2023/06/03 14:27:28;;;;;;;14.00;8.55;;;;;;;;;;6187768;23;20001;-82